sensor_id;sensor_type;location;lat;lon;timestamp;P1;durP1;ratioP1;P2;durP2;ratioP2
37349;SDS011;23231;52.358;4.926;2023-03-14T00:03:03;14.77;;;2.67;;
37349;SDS011;23231;52.358;4.926;2023-03-14T00:08:04;13.40;;;2.60;;
37349;SDS011;23231;52.358;4.926;2023-03-14T00:13:04;13.85;;;2.65;;
37349;SDS011;23231;52.358;4.926;2023-03-14T00:18:05;9.55;;;1.90;;
37349;SDS011;23231;52.358;4.926;2023-03-14T00:23:05;14.90;;;2.80;;
37349;SDS011;23231;52.358;4.926;2023-03-14T00:28:05;12.25;;;2.33;;
37349;SDS011;23231;52.358;4.926;2023-03-14T00:33:06;12.40;;;2.42;;
37349;SDS011;23231;52.358;4.926;2023-03-14T00:38:06;11.73;;;2.08;;
37349;SDS011;23231;52.358;4.926;2023-03-14T00:43:06;15.30;;;2.40;;
37349;SDS011;23231;52.358;4.926;2023-03-14T00:48:07;9.57;;;1.88;;
37349;SDS011;23231;52.358;4.926;2023-03-14T00:53:07;11.88;;;2.10;;
37349;SDS011;23231;52.358;4.926;2023-03-14T00:58:08;12.90;;;2.05;;
37349;SDS011;23231;52.358;4.926;2023-03-14T01:03:09;13.13;;;2.33;;
37349;SDS011;23231;52.358;4.926;2023-03-14T01:08:10;12.75;;;2.58;;
37349;SDS011;23231;52.358;4.926;2023-03-14T01:13:11;8.35;;;1.65;;
37349;SDS011;23231;52.358;4.926;2023-03-14T01:18:12;13.38;;;2.15;;
37349;SDS011;23231;52.358;4.926;2023-03-14T01:23:12;11.82;;;3.17;;
37349;SDS011;23231;52.358;4.926;2023-03-14T01:28:12;14.85;;;2.65;;
37349;SDS011;23231;52.358;4.926;2023-03-14T01:33:13;13.77;;;2.42;;
37349;SDS011;23231;52.358;4.926;2023-03-14T01:38:14;18.38;;;3.28;;
37349;SDS011;23231;52.358;4.926;2023-03-14T01:43:16;17.63;;;3.53;;
37349;SDS011;23231;52.358;4.926;2023-03-14T01:48:18;24.20;;;3.78;;
37349;SDS011;23231;52.358;4.926;2023-03-14T01:53:18;22.25;;;4.75;;
37349;SDS011;23231;52.358;4.926;2023-03-14T01:58:21;17.45;;;2.78;;
37349;SDS011;23231;52.358;4.926;2023-03-14T02:03:21;22.27;;;2.95;;
37349;SDS011;23231;52.358;4.926;2023-03-14T02:08:23;20.63;;;3.30;;
37349;SDS011;23231;52.358;4.926;2023-03-14T02:13:24;15.98;;;3.15;;
37349;SDS011;23231;52.358;4.926;2023-03-14T02:18:24;17.73;;;3.17;;
37349;SDS011;23231;52.358;4.926;2023-03-14T02:28:35;16.88;;;2.78;;
37349;SDS011;23231;52.358;4.926;2023-03-14T02:33:35;14.55;;;2.83;;
37349;SDS011;23231;52.358;4.926;2023-03-14T02:38:39;17.48;;;2.92;;
37349;SDS011;23231;52.358;4.926;2023-03-14T02:43:44;16.77;;;2.47;;
37349;SDS011;23231;52.358;4.926;2023-03-14T02:48:58;17.60;;;3.55;;
37349;SDS011;23231;52.358;4.926;2023-03-14T02:54:03;19.02;;;4.05;;
37349;SDS011;23231;52.358;4.926;2023-03-14T02:59:04;10.65;;;2.90;;
37349;SDS011;23231;52.358;4.926;2023-03-14T03:04:04;14.30;;;3.67;;
37349;SDS011;23231;52.358;4.926;2023-03-14T03:09:05;14.35;;;4.15;;
37349;SDS011;23231;52.358;4.926;2023-03-14T03:14:05;16.83;;;3.92;;
37349;SDS011;23231;52.358;4.926;2023-03-14T03:19:06;12.05;;;2.75;;
37349;SDS011;23231;52.358;4.926;2023-03-14T03:24:06;11.60;;;2.88;;
37349;SDS011;23231;52.358;4.926;2023-03-14T03:29:06;13.32;;;2.85;;
37349;SDS011;23231;52.358;4.926;2023-03-14T03:34:07;13.63;;;3.45;;
37349;SDS011;23231;52.358;4.926;2023-03-14T03:39:08;12.00;;;3.10;;
37349;SDS011;23231;52.358;4.926;2023-03-14T03:44:08;11.55;;;3.10;;
37349;SDS011;23231;52.358;4.926;2023-03-14T03:49:08;13.80;;;3.40;;
37349;SDS011;23231;52.358;4.926;2023-03-14T03:54:09;10.52;;;3.05;;
37349;SDS011;23231;52.358;4.926;2023-03-14T03:59:09;13.50;;;2.92;;
37349;SDS011;23231;52.358;4.926;2023-03-14T04:04:09;11.20;;;3.17;;
37349;SDS011;23231;52.358;4.926;2023-03-14T04:09:10;12.30;;;2.83;;
37349;SDS011;23231;52.358;4.926;2023-03-14T04:14:11;14.43;;;3.35;;
37349;SDS011;23231;52.358;4.926;2023-03-14T04:19:12;11.27;;;3.95;;
37349;SDS011;23231;52.358;4.926;2023-03-14T04:24:12;15.30;;;3.65;;
37349;SDS011;23231;52.358;4.926;2023-03-14T04:29:13;13.73;;;4.03;;
37349;SDS011;23231;52.358;4.926;2023-03-14T04:34:13;12.57;;;4.18;;
37349;SDS011;23231;52.358;4.926;2023-03-14T04:39:14;15.55;;;5.38;;
37349;SDS011;23231;52.358;4.926;2023-03-14T04:44:14;20.27;;;4.65;;
37349;SDS011;23231;52.358;4.926;2023-03-14T04:49:14;15.68;;;4.47;;
37349;SDS011;23231;52.358;4.926;2023-03-14T04:54:15;18.80;;;5.28;;
37349;SDS011;23231;52.358;4.926;2023-03-14T04:59:15;16.83;;;5.03;;
37349;SDS011;23231;52.358;4.926;2023-03-14T05:04:15;17.23;;;5.35;;
37349;SDS011;23231;52.358;4.926;2023-03-14T05:09:16;16.45;;;5.95;;
37349;SDS011;23231;52.358;4.926;2023-03-14T05:14:16;19.88;;;5.50;;
37349;SDS011;23231;52.358;4.926;2023-03-14T05:19:17;25.08;;;5.50;;
37349;SDS011;23231;52.358;4.926;2023-03-14T05:24:17;20.85;;;4.97;;
37349;SDS011;23231;52.358;4.926;2023-03-14T05:29:18;18.35;;;5.72;;
37349;SDS011;23231;52.358;4.926;2023-03-14T05:34:18;17.63;;;5.25;;
37349;SDS011;23231;52.358;4.926;2023-03-14T05:39:18;19.50;;;5.97;;
37349;SDS011;23231;52.358;4.926;2023-03-14T05:44:19;17.92;;;6.25;;
37349;SDS011;23231;52.358;4.926;2023-03-14T05:49:19;7.25;;;2.00;;
37349;SDS011;23231;52.358;4.926;2023-03-14T05:54:20;8.77;;;2.33;;
37349;SDS011;23231;52.358;4.926;2023-03-14T05:59:20;7.55;;;2.28;;
37349;SDS011;23231;52.358;4.926;2023-03-14T06:04:21;12.30;;;2.28;;
37349;SDS011;23231;52.358;4.926;2023-03-14T06:09:21;7.50;;;1.48;;
37349;SDS011;23231;52.358;4.926;2023-03-14T06:14:23;4.50;;;1.50;;
37349;SDS011;23231;52.358;4.926;2023-03-14T06:19:25;7.15;;;1.80;;
37349;SDS011;23231;52.358;4.926;2023-03-14T06:24:25;7.68;;;1.85;;
37349;SDS011;23231;52.358;4.926;2023-03-14T06:29:26;8.30;;;1.80;;
37349;SDS011;23231;52.358;4.926;2023-03-14T06:34:26;8.23;;;2.20;;
37349;SDS011;23231;52.358;4.926;2023-03-14T06:39:27;8.82;;;1.90;;
37349;SDS011;23231;52.358;4.926;2023-03-14T06:44:27;5.53;;;2.13;;
37349;SDS011;23231;52.358;4.926;2023-03-14T06:49:27;5.00;;;1.75;;
37349;SDS011;23231;52.358;4.926;2023-03-14T06:54:28;5.97;;;2.10;;
37349;SDS011;23231;52.358;4.926;2023-03-14T06:59:28;6.88;;;1.60;;
37349;SDS011;23231;52.358;4.926;2023-03-14T07:04:29;8.00;;;1.60;;
37349;SDS011;23231;52.358;4.926;2023-03-14T07:09:29;8.65;;;2.05;;
37349;SDS011;23231;52.358;4.926;2023-03-14T07:14:30;12.35;;;2.00;;
37349;SDS011;23231;52.358;4.926;2023-03-14T07:19:30;8.05;;;1.65;;
37349;SDS011;23231;52.358;4.926;2023-03-14T07:24:34;6.72;;;1.50;;
37349;SDS011;23231;52.358;4.926;2023-03-14T07:29:34;8.48;;;1.55;;
37349;SDS011;23231;52.358;4.926;2023-03-14T07:34:34;7.95;;;1.33;;
37349;SDS011;23231;52.358;4.926;2023-03-14T07:39:35;6.55;;;1.27;;
37349;SDS011;23231;52.358;4.926;2023-03-14T07:44:35;6.67;;;1.10;;
37349;SDS011;23231;52.358;4.926;2023-03-14T07:49:36;8.80;;;2.00;;
37349;SDS011;23231;52.358;4.926;2023-03-14T07:54:36;6.77;;;1.23;;
37349;SDS011;23231;52.358;4.926;2023-03-14T07:59:36;10.77;;;1.10;;
37349;SDS011;23231;52.358;4.926;2023-03-14T08:04:37;7.57;;;1.50;;
37349;SDS011;23231;52.358;4.926;2023-03-14T08:09:38;5.70;;;0.93;;
37349;SDS011;23231;52.358;4.926;2023-03-14T08:14:38;8.07;;;1.30;;
37349;SDS011;23231;52.358;4.926;2023-03-14T08:19:40;7.85;;;1.10;;
37349;SDS011;23231;52.358;4.926;2023-03-14T08:24:41;5.13;;;1.85;;
37349;SDS011;23231;52.358;4.926;2023-03-14T08:29:41;10.07;;;1.67;;
37349;SDS011;23231;52.358;4.926;2023-03-14T08:34:42;11.00;;;1.58;;
37349;SDS011;23231;52.358;4.926;2023-03-14T08:39:42;11.07;;;2.15;;
37349;SDS011;23231;52.358;4.926;2023-03-14T08:44:43;13.50;;;2.38;;
37349;SDS011;23231;52.358;4.926;2023-03-14T08:49:44;19.38;;;2.78;;
37349;SDS011;23231;52.358;4.926;2023-03-14T08:54:44;16.40;;;2.13;;
37349;SDS011;23231;52.358;4.926;2023-03-14T08:59:44;19.92;;;3.90;;
37349;SDS011;23231;52.358;4.926;2023-03-14T09:04:45;16.45;;;2.53;;
37349;SDS011;23231;52.358;4.926;2023-03-14T09:09:45;15.93;;;3.08;;
37349;SDS011;23231;52.358;4.926;2023-03-14T09:14:46;22.05;;;2.55;;
37349;SDS011;23231;52.358;4.926;2023-03-14T09:19:46;21.65;;;3.95;;
37349;SDS011;23231;52.358;4.926;2023-03-14T09:24:46;17.98;;;2.40;;
37349;SDS011;23231;52.358;4.926;2023-03-14T09:29:47;15.50;;;2.43;;
37349;SDS011;23231;52.358;4.926;2023-03-14T09:34:47;8.17;;;1.87;;
37349;SDS011;23231;52.358;4.926;2023-03-14T09:39:48;11.98;;;1.95;;
37349;SDS011;23231;52.358;4.926;2023-03-14T09:44:59;20.13;;;2.40;;
37349;SDS011;23231;52.358;4.926;2023-03-14T09:50:06;12.30;;;2.23;;
37349;SDS011;23231;52.358;4.926;2023-03-14T09:55:20;13.93;;;2.58;;
37349;SDS011;23231;52.358;4.926;2023-03-14T10:00:23;17.13;;;2.72;;
37349;SDS011;23231;52.358;4.926;2023-03-14T10:05:25;20.40;;;3.00;;
37349;SDS011;23231;52.358;4.926;2023-03-14T10:10:27;24.48;;;2.90;;
37349;SDS011;23231;52.358;4.926;2023-03-14T10:15:32;25.40;;;3.58;;
37349;SDS011;23231;52.358;4.926;2023-03-14T10:20:34;16.83;;;3.80;;
37349;SDS011;23231;52.358;4.926;2023-03-14T10:25:37;14.65;;;2.67;;
37349;SDS011;23231;52.358;4.926;2023-03-14T10:30:39;19.38;;;2.45;;
37349;SDS011;23231;52.358;4.926;2023-03-14T10:35:47;15.68;;;2.70;;
37349;SDS011;23231;52.358;4.926;2023-03-14T10:41:02;12.63;;;2.58;;
37349;SDS011;23231;52.358;4.926;2023-03-14T10:46:12;20.30;;;2.80;;
37349;SDS011;23231;52.358;4.926;2023-03-14T10:56:26;17.83;;;2.78;;
37349;SDS011;23231;52.358;4.926;2023-03-14T11:06:56;11.35;;;2.00;;
37349;SDS011;23231;52.358;4.926;2023-03-14T11:12:26;7.00;;;2.00;;
37349;SDS011;23231;52.358;4.926;2023-03-14T11:17:39;10.55;;;1.90;;
37349;SDS011;23231;52.358;4.926;2023-03-14T11:22:50;13.07;;;2.00;;
37349;SDS011;23231;52.358;4.926;2023-03-14T11:33:30;12.55;;;2.03;;
37349;SDS011;23231;52.358;4.926;2023-03-14T11:38:50;10.82;;;1.45;;
37349;SDS011;23231;52.358;4.926;2023-03-14T11:43:56;12.93;;;2.75;;
37349;SDS011;23231;52.358;4.926;2023-03-14T11:54:14;9.23;;;1.27;;
37349;SDS011;23231;52.358;4.926;2023-03-14T12:09:51;5.15;;;1.60;;
37349;SDS011;23231;52.358;4.926;2023-03-14T12:14:54;7.53;;;1.35;;
37349;SDS011;23231;52.358;4.926;2023-03-14T12:20:04;8.15;;;1.33;;
37349;SDS011;23231;52.358;4.926;2023-03-14T12:35:37;7.75;;;1.45;;
37349;SDS011;23231;52.358;4.926;2023-03-14T12:41:02;8.00;;;1.15;;
37349;SDS011;23231;52.358;4.926;2023-03-14T12:46:25;8.98;;;1.40;;
37349;SDS011;23231;52.358;4.926;2023-03-14T12:51:42;8.30;;;1.43;;
37349;SDS011;23231;52.358;4.926;2023-03-14T13:07:12;10.00;;;1.58;;
37349;SDS011;23231;52.358;4.926;2023-03-14T13:12:14;13.32;;;1.80;;
37349;SDS011;23231;52.358;4.926;2023-03-14T13:17:27;9.02;;;1.80;;
37349;SDS011;23231;52.358;4.926;2023-03-14T13:22:32;6.35;;;1.45;;
37349;SDS011;23231;52.358;4.926;2023-03-14T13:27:36;10.93;;;2.22;;
37349;SDS011;23231;52.358;4.926;2023-03-14T13:32:39;8.98;;;1.10;;
37349;SDS011;23231;52.358;4.926;2023-03-14T13:37:42;7.82;;;1.13;;
37349;SDS011;23231;52.358;4.926;2023-03-14T13:42:43;7.45;;;1.35;;
37349;SDS011;23231;52.358;4.926;2023-03-14T13:47:43;10.23;;;1.45;;
37349;SDS011;23231;52.358;4.926;2023-03-14T13:52:45;9.65;;;1.40;;
37349;SDS011;23231;52.358;4.926;2023-03-14T13:57:47;6.85;;;1.67;;
37349;SDS011;23231;52.358;4.926;2023-03-14T14:02:49;6.25;;;1.20;;
37349;SDS011;23231;52.358;4.926;2023-03-14T14:07:49;7.72;;;1.70;;
37349;SDS011;23231;52.358;4.926;2023-03-14T14:12:59;13.40;;;2.25;;
37349;SDS011;23231;52.358;4.926;2023-03-14T14:18:01;10.98;;;1.58;;
37349;SDS011;23231;52.358;4.926;2023-03-14T14:23:05;8.20;;;1.77;;
37349;SDS011;23231;52.358;4.926;2023-03-14T14:28:17;9.18;;;1.40;;
37349;SDS011;23231;52.358;4.926;2023-03-14T14:33:27;5.78;;;1.20;;
37349;SDS011;23231;52.358;4.926;2023-03-14T14:38:28;6.05;;;1.55;;
37349;SDS011;23231;52.358;4.926;2023-03-14T14:43:30;8.85;;;1.75;;
37349;SDS011;23231;52.358;4.926;2023-03-14T14:48:38;4.90;;;1.02;;
37349;SDS011;23231;52.358;4.926;2023-03-14T14:58:40;5.97;;;1.70;;
37349;SDS011;23231;52.358;4.926;2023-03-14T15:03:45;6.68;;;1.65;;
37349;SDS011;23231;52.358;4.926;2023-03-14T15:08:47;4.28;;;1.45;;
37349;SDS011;23231;52.358;4.926;2023-03-14T15:13:49;8.98;;;1.40;;
37349;SDS011;23231;52.358;4.926;2023-03-14T15:18:52;7.45;;;1.63;;
37349;SDS011;23231;52.358;4.926;2023-03-14T15:23:55;8.47;;;1.80;;
37349;SDS011;23231;52.358;4.926;2023-03-14T15:28:55;10.73;;;1.73;;
37349;SDS011;23231;52.358;4.926;2023-03-14T15:33:55;11.70;;;1.98;;
37349;SDS011;23231;52.358;4.926;2023-03-14T15:38:56;8.50;;;1.63;;
37349;SDS011;23231;52.358;4.926;2023-03-14T15:43:58;14.57;;;1.77;;
37349;SDS011;23231;52.358;4.926;2023-03-14T15:48:59;11.02;;;1.38;;
37349;SDS011;23231;52.358;4.926;2023-03-14T15:53:59;8.70;;;1.58;;
37349;SDS011;23231;52.358;4.926;2023-03-14T15:59:00;5.15;;;1.40;;
37349;SDS011;23231;52.358;4.926;2023-03-14T16:04:00;7.13;;;1.30;;
37349;SDS011;23231;52.358;4.926;2023-03-14T16:09:02;9.20;;;1.27;;
37349;SDS011;23231;52.358;4.926;2023-03-14T16:14:04;9.15;;;1.55;;
37349;SDS011;23231;52.358;4.926;2023-03-14T16:19:06;8.95;;;1.75;;
37349;SDS011;23231;52.358;4.926;2023-03-14T16:24:06;4.82;;;1.52;;
37349;SDS011;23231;52.358;4.926;2023-03-14T16:29:07;8.43;;;1.58;;
37349;SDS011;23231;52.358;4.926;2023-03-14T16:34:08;7.30;;;1.67;;
37349;SDS011;23231;52.358;4.926;2023-03-14T16:39:08;7.18;;;1.38;;
37349;SDS011;23231;52.358;4.926;2023-03-14T16:44:09;7.05;;;1.40;;
37349;SDS011;23231;52.358;4.926;2023-03-14T16:49:09;10.00;;;1.38;;
37349;SDS011;23231;52.358;4.926;2023-03-14T16:54:09;12.77;;;1.70;;
37349;SDS011;23231;52.358;4.926;2023-03-14T16:59:10;8.93;;;2.42;;
37349;SDS011;23231;52.358;4.926;2023-03-14T17:04:10;14.27;;;2.58;;
37349;SDS011;23231;52.358;4.926;2023-03-14T17:09:14;8.02;;;1.75;;
37349;SDS011;23231;52.358;4.926;2023-03-14T17:14:14;9.32;;;1.95;;
37349;SDS011;23231;52.358;4.926;2023-03-14T17:19:15;11.02;;;2.50;;
37349;SDS011;23231;52.358;4.926;2023-03-14T17:24:15;8.90;;;1.87;;
37349;SDS011;23231;52.358;4.926;2023-03-14T17:29:16;11.20;;;1.90;;
37349;SDS011;23231;52.358;4.926;2023-03-14T17:34:16;8.23;;;1.57;;
37349;SDS011;23231;52.358;4.926;2023-03-14T17:39:16;6.60;;;1.80;;
37349;SDS011;23231;52.358;4.926;2023-03-14T17:44:17;5.67;;;2.00;;
37349;SDS011;23231;52.358;4.926;2023-03-14T17:49:17;7.67;;;1.90;;
37349;SDS011;23231;52.358;4.926;2023-03-14T17:54:18;7.47;;;2.00;;
37349;SDS011;23231;52.358;4.926;2023-03-14T17:59:18;11.23;;;2.27;;
37349;SDS011;23231;52.358;4.926;2023-03-14T18:04:19;8.83;;;2.37;;
37349;SDS011;23231;52.358;4.926;2023-03-14T18:09:20;8.40;;;2.37;;
37349;SDS011;23231;52.358;4.926;2023-03-14T18:14:20;8.10;;;2.20;;
37349;SDS011;23231;52.358;4.926;2023-03-14T18:19:21;15.37;;;2.50;;
37349;SDS011;23231;52.358;4.926;2023-03-14T18:24:21;7.13;;;2.10;;
37349;SDS011;23231;52.358;4.926;2023-03-14T18:29:22;9.33;;;1.83;;
37349;SDS011;23231;52.358;4.926;2023-03-14T18:34:23;12.30;;;2.40;;
37349;SDS011;23231;52.358;4.926;2023-03-14T18:39:23;14.30;;;3.27;;
37349;SDS011;23231;52.358;4.926;2023-03-14T18:44:24;11.27;;;2.45;;
37349;SDS011;23231;52.358;4.926;2023-03-14T18:49:24;9.40;;;2.77;;
37349;SDS011;23231;52.358;4.926;2023-03-14T18:54:25;9.53;;;2.53;;
37349;SDS011;23231;52.358;4.926;2023-03-14T18:59:25;14.00;;;2.70;;
37349;SDS011;23231;52.358;4.926;2023-03-14T19:04:26;11.80;;;2.10;;
37349;SDS011;23231;52.358;4.926;2023-03-14T19:09:26;14.57;;;3.10;;
37349;SDS011;23231;52.358;4.926;2023-03-14T19:14:26;10.90;;;3.13;;
37349;SDS011;23231;52.358;4.926;2023-03-14T19:19:27;14.20;;;3.70;;
37349;SDS011;23231;52.358;4.926;2023-03-14T19:24:27;9.50;;;2.63;;
37349;SDS011;23231;52.358;4.926;2023-03-14T19:29:27;13.30;;;2.63;;
37349;SDS011;23231;52.358;4.926;2023-03-14T19:34:28;14.53;;;3.10;;
37349;SDS011;23231;52.358;4.926;2023-03-14T19:39:29;8.80;;;2.67;;
37349;SDS011;23231;52.358;4.926;2023-03-14T19:44:29;9.43;;;2.53;;
37349;SDS011;23231;52.358;4.926;2023-03-14T19:49:30;13.13;;;3.43;;
37349;SDS011;23231;52.358;4.926;2023-03-14T19:54:31;17.63;;;4.10;;
37349;SDS011;23231;52.358;4.926;2023-03-14T19:59:31;10.60;;;2.90;;
37349;SDS011;23231;52.358;4.926;2023-03-14T20:04:31;10.43;;;2.90;;
37349;SDS011;23231;52.358;4.926;2023-03-14T20:09:32;16.00;;;2.80;;
37349;SDS011;23231;52.358;4.926;2023-03-14T20:14:33;12.43;;;2.70;;
37349;SDS011;23231;52.358;4.926;2023-03-14T20:19:34;8.77;;;2.30;;
37349;SDS011;23231;52.358;4.926;2023-03-14T20:24:34;11.57;;;2.00;;
37349;SDS011;23231;52.358;4.926;2023-03-14T20:29:35;10.97;;;2.13;;
37349;SDS011;23231;52.358;4.926;2023-03-14T20:34:35;7.47;;;1.97;;
37349;SDS011;23231;52.358;4.926;2023-03-14T20:39:37;5.90;;;1.73;;
37349;SDS011;23231;52.358;4.926;2023-03-14T20:44:38;7.33;;;2.37;;
37349;SDS011;23231;52.358;4.926;2023-03-14T20:49:39;7.80;;;2.70;;
37349;SDS011;23231;52.358;4.926;2023-03-14T20:54:39;8.00;;;1.77;;
37349;SDS011;23231;52.358;4.926;2023-03-14T20:59:40;7.00;;;2.30;;
37349;SDS011;23231;52.358;4.926;2023-03-14T21:04:40;7.75;;;2.42;;
37349;SDS011;23231;52.358;4.926;2023-03-14T21:09:41;7.80;;;1.50;;
37349;SDS011;23231;52.358;4.926;2023-03-14T21:14:41;8.57;;;1.80;;
37349;SDS011;23231;52.358;4.926;2023-03-14T21:19:41;7.97;;;1.90;;
37349;SDS011;23231;52.358;4.926;2023-03-14T21:24:44;18.50;;;2.23;;
37349;SDS011;23231;52.358;4.926;2023-03-14T21:29:45;5.57;;;1.80;;
37349;SDS011;23231;52.358;4.926;2023-03-14T21:34:45;8.40;;;2.20;;
37349;SDS011;23231;52.358;4.926;2023-03-14T21:39:49;7.87;;;1.90;;
37349;SDS011;23231;52.358;4.926;2023-03-14T21:44:49;6.73;;;1.63;;
37349;SDS011;23231;52.358;4.926;2023-03-14T21:49:51;5.00;;;1.53;;
37349;SDS011;23231;52.358;4.926;2023-03-14T21:54:52;6.10;;;1.43;;
37349;SDS011;23231;52.358;4.926;2023-03-14T21:59:53;3.67;;;1.40;;
37349;SDS011;23231;52.358;4.926;2023-03-14T22:04:53;5.53;;;1.37;;
37349;SDS011;23231;52.358;4.926;2023-03-14T22:09:53;6.60;;;1.67;;
37349;SDS011;23231;52.358;4.926;2023-03-14T22:14:54;4.60;;;1.53;;
37349;SDS011;23231;52.358;4.926;2023-03-14T22:19:55;8.07;;;2.77;;
37349;SDS011;23231;52.358;4.926;2023-03-14T22:24:55;12.87;;;2.43;;
37349;SDS011;23231;52.358;4.926;2023-03-14T22:29:58;6.53;;;1.77;;
37349;SDS011;23231;52.358;4.926;2023-03-14T22:34:58;7.23;;;2.07;;
37349;SDS011;23231;52.358;4.926;2023-03-14T22:39:59;4.53;;;2.27;;
37349;SDS011;23231;52.358;4.926;2023-03-14T22:44:59;4.07;;;2.00;;
37349;SDS011;23231;52.358;4.926;2023-03-14T22:49:59;5.43;;;2.00;;
37349;SDS011;23231;52.358;4.926;2023-03-14T22:55:01;7.30;;;1.90;;
37349;SDS011;23231;52.358;4.926;2023-03-14T23:00:02;7.47;;;2.80;;
37349;SDS011;23231;52.358;4.926;2023-03-14T23:05:09;6.73;;;2.50;;
37349;SDS011;23231;52.358;4.926;2023-03-14T23:10:09;5.70;;;2.07;;
37349;SDS011;23231;52.358;4.926;2023-03-14T23:15:13;5.23;;;2.00;;
37349;SDS011;23231;52.358;4.926;2023-03-14T23:20:17;3.70;;;1.27;;
37349;SDS011;23231;52.358;4.926;2023-03-14T23:25:18;4.87;;;1.23;;
37349;SDS011;23231;52.358;4.926;2023-03-14T23:30:19;7.73;;;1.57;;
37349;SDS011;23231;52.358;4.926;2023-03-14T23:35:20;4.10;;;1.00;;
37349;SDS011;23231;52.358;4.926;2023-03-14T23:40:20;4.93;;;1.20;;
37349;SDS011;23231;52.358;4.926;2023-03-14T23:45:20;3.97;;;1.17;;
37349;SDS011;23231;52.358;4.926;2023-03-14T23:50:23;4.03;;;1.37;;
37349;SDS011;23231;52.358;4.926;2023-03-14T23:55:23;4.30;;;1.07;;
